Time;durP1;ratioP1;P1;durP2;ratioP2;P2;SDS_P1;SDS_P2;PMS_P1;PMS_P2;Temp;Humidity;BMP_temperature;BMP_pressure;BME280_temperature;BME280_humidity;BME280_pressure;Samples;Min_cycle;Max_cycle;Signal;HPM_P1;HPM_P2
2022/12/08 00:01:09;;;;;;;17.83;6.60;;;-0.20;99.90;;;;;;5031351;28;20519;-68
2022/12/08 00:03:35;;;;;;;12.50;4.97;;;-0.20;99.90;;;;;;5029623;28;20190;-68
2022/12/08 00:11:31;;;;;;;7.70;4.53;;;-0.30;99.90;;;;;;5026417;28;20451;-68
2022/12/08 00:13:57;;;;;;;8.17;4.83;;;-0.40;99.90;;;;;;5030614;28;20436;-68
2022/12/08 00:16:22;;;;;;;8.77;4.63;;;-0.50;99.90;;;;;;5029464;28;20277;-68
2022/12/08 00:18:48;;;;;;;9.10;5.30;;;-0.50;99.90;;;;;;5030279;28;20552;-68
2022/12/08 00:21:13;;;;;;;15.97;6.30;;;-0.50;99.90;;;;;;5028429;28;20189;-68
2022/12/08 00:23:39;;;;;;;11.40;4.93;;;-0.60;99.90;;;;;;5029130;28;20590;-68
2022/12/08 00:26:05;;;;;;;11.43;5.23;;;-0.60;99.90;;;;;;5030255;28;20194;-68
2022/12/08 00:28:32;;;;;;;6.67;3.97;;;-0.70;99.90;;;;;;5030655;28;20206;-68
2022/12/08 00:30:58;;;;;;;12.10;5.00;;;-0.70;99.90;;;;;;5027621;28;20274;-68
2022/12/08 00:33:23;;;;;;;10.40;4.77;;;-0.70;99.90;;;;;;5029463;28;20965;-68
2022/12/08 00:35:49;;;;;;;8.93;3.63;;;-0.70;99.90;;;;;;5028951;28;20540;-68
2022/12/08 00:38:15;;;;;;;10.70;5.20;;;-0.70;99.90;;;;;;5029664;28;20205;-68
2022/12/08 00:40:46;;;;;;;11.10;5.43;;;-0.70;99.90;;;;;;5023963;28;20187;-68
2022/12/08 00:43:13;;;;;;;14.20;5.30;;;-0.80;99.90;;;;;;5029939;28;20194;-68
2022/12/08 00:45:39;;;;;;;7.07;3.70;;;-0.80;99.90;;;;;;5032041;28;20433;-68
2022/12/08 00:48:05;;;;;;;12.93;5.27;;;-0.90;99.90;;;;;;5031893;28;21019;-68
2022/12/08 00:50:31;;;;;;;9.50;4.60;;;-0.90;99.90;;;;;;5032579;28;20175;-68
2022/12/08 00:52:56;;;;;;;14.67;5.70;;;-0.90;99.90;;;;;;5031771;28;20425;-68
2022/12/08 00:55:22;;;;;;;8.50;4.77;;;-0.90;99.90;;;;;;5031005;28;20178;-68
2022/12/08 00:57:47;;;;;;;1.40;0.73;;;-0.90;99.90;;;;;;5031255;28;20658;-68
2022/12/08 01:00:13;;;;;;;1.20;0.50;;;-0.90;99.90;;;;;;5033187;28;20202;-68
2022/12/08 01:02:39;;;;;;;1.63;0.97;;;-0.90;99.90;;;;;;5031616;28;20661;-68
2022/12/08 01:05:05;;;;;;;1.10;0.50;;;-0.90;99.90;;;;;;5031605;28;20686;-68
2022/12/08 01:07:31;;;;;;;1.40;0.80;;;-0.90;99.90;;;;;;5031480;28;20500;-68
2022/12/08 01:09:56;;;;;;;1.20;0.60;;;-0.90;99.90;;;;;;5030563;28;20525;-68
2022/12/08 01:12:23;;;;;;;1.00;0.40;;;-0.90;99.90;;;;;;5031961;28;20668;-69
2022/12/08 01:14:48;;;;;;;1.10;0.40;;;-0.90;99.90;;;;;;5031170;28;20186;-67
2022/12/08 01:17:14;;;;;;;1.00;0.40;;;-0.90;99.90;;;;;;5027232;28;20441;-68
2022/12/08 01:19:39;;;;;;;2.50;0.87;;;-1.00;99.90;;;;;;5028853;28;20237;-68
2022/12/08 01:22:05;;;;;;;1.00;0.40;;;-1.00;99.90;;;;;;5028968;28;20186;-68
2022/12/08 01:24:31;;;;;;;2.50;1.00;;;-1.10;99.90;;;;;;5031147;28;20186;-68
2022/12/08 01:26:56;;;;;;;1.30;0.50;;;-1.20;99.90;;;;;;5032944;28;20214;-68
2022/12/08 01:29:22;;;;;;;1.67;0.70;;;-1.20;99.90;;;;;;5053660;28;20182;-68
2022/12/08 01:31:47;;;;;;;1.20;0.40;;;-1.20;99.90;;;;;;5031816;28;20813;-68
2022/12/08 01:34:13;;;;;;;1.50;1.07;;;-1.20;99.90;;;;;;5027439;28;20213;-68
2022/12/08 01:36:41;;;;;;;1.53;0.73;;;-1.30;99.90;;;;;;5029892;28;20227;-68
2022/12/08 01:39:12;;;;;;;1.87;0.83;;;-1.20;99.90;;;;;;5029891;28;20269;-68
2022/12/08 01:41:38;;;;;;;2.77;1.40;;;-1.30;99.90;;;;;;5027981;28;20941;-68
2022/12/08 01:44:12;;;;;;;1.10;0.60;;;-1.30;99.90;;;;;;5030380;28;20924;-68
2022/12/08 01:46:40;;;;;;;9.90;5.53;;;-1.30;99.90;;;;;;5029744;28;20468;-68
2022/12/08 01:49:20;;;;;;;8.67;4.90;;;-1.30;99.90;;;;;;5028029;28;20472;-68
2022/12/08 01:52:01;;;;;;;8.60;5.10;;;-1.30;99.90;;;;;;5028101;28;20440;-68
2022/12/08 01:54:32;;;;;;;6.80;4.90;;;-1.30;99.90;;;;;;5026874;28;20441;-68
2022/12/08 01:57:04;;;;;;;13.00;6.30;;;-1.30;99.90;;;;;;5029934;28;21301;-68
2022/12/08 01:59:34;;;;;;;10.23;4.00;;;-1.30;99.90;;;;;;5022546;28;20455;-68
2022/12/08 02:01:59;;;;;;;10.00;5.03;;;-1.30;99.90;;;;;;5023480;28;20449;-68
2022/12/08 02:04:25;;;;;;;12.37;5.53;;;-1.30;99.90;;;;;;5020163;28;20428;-68
2022/12/08 02:06:52;;;;;;;11.30;5.23;;;-1.30;99.90;;;;;;5027858;28;20236;-68
2022/12/08 02:09:18;;;;;;;7.43;3.67;;;-1.30;99.90;;;;;;5027799;28;20186;-68
2022/12/08 02:11:44;;;;;;;15.10;5.10;;;-1.40;99.90;;;;;;5026267;28;20498;-68
2022/12/08 02:14:12;;;;;;;11.47;5.30;;;-1.40;99.90;;;;;;5029941;28;20460;-68
2022/12/08 02:17:04;;;;;;;9.63;4.77;;;-1.40;99.90;;;;;;5028170;28;20182;-68
2022/12/08 02:19:42;;;;;;;8.17;4.73;;;-1.40;99.90;;;;;;5027811;28;20973;-68
2022/12/08 02:22:21;;;;;;;9.07;5.13;;;-1.40;99.90;;;;;;5027271;28;20789;-68
2022/12/08 02:25:19;;;;;;;1.10;0.50;;;-1.40;99.90;;;;;;5026229;28;20441;-68
2022/12/08 02:27:53;;;;;;;11.70;4.80;;;-1.40;99.90;;;;;;5018154;28;20491;-68
2022/12/08 02:30:21;;;;;;;2.73;1.63;;;-1.40;99.90;;;;;;5028955;28;20440;-68
2022/12/08 02:33:06;;;;;;;13.40;4.80;;;-1.40;99.90;;;;;;5029632;28;20413;-68
2022/12/08 02:35:50;;;;;;;6.20;3.50;;;-1.40;99.90;;;;;;5030271;28;20421;-68
2022/12/08 02:38:31;;;;;;;9.67;4.17;;;-1.30;99.90;;;;;;5030257;28;20463;-68
2022/12/08 02:41:18;;;;;;;7.17;3.97;;;-1.30;99.90;;;;;;5025043;28;20421;-68
2022/12/08 02:43:52;;;;;;;14.37;5.23;;;-1.30;99.90;;;;;;5026865;28;20440;-68
2022/12/08 02:46:29;;;;;;;10.03;5.43;;;-1.40;99.90;;;;;;5030430;28;20437;-68
2022/12/08 02:48:56;;;;;;;11.60;4.63;;;-1.40;99.90;;;;;;5029593;28;20464;-68
2022/12/08 02:51:21;;;;;;;9.10;4.77;;;-1.50;99.90;;;;;;5029634;28;20421;-68
2022/12/08 02:53:47;;;;;;;1.93;0.90;;;-1.40;99.90;;;;;;5044466;28;20440;-68
2022/12/08 02:56:59;;;;;;;6.93;4.03;;;-1.40;99.90;;;;;;5033841;28;20270;-68
2022/12/08 03:00:04;;;;;;;9.37;3.90;;;-1.40;99.90;;;;;;5010270;28;20780;-68
2022/12/08 03:02:32;;;;;;;1.87;1.03;;;-1.50;99.90;;;;;;5029974;28;20437;-68
2022/12/08 03:05:25;;;;;;;2.87;1.53;;;-1.50;99.90;;;;;;5033249;28;21036;-68
2022/12/08 03:08:19;;;;;;;9.83;4.33;;;-1.60;99.90;;;;;;5033357;28;20475;-68
2022/12/08 03:11:01;;;;;;;11.20;4.57;;;-1.60;99.90;;;;;;5032607;28;20441;-68
2022/12/08 03:13:40;;;;;;;1.10;0.53;;;-1.60;99.90;;;;;;5031831;28;20433;-68
2022/12/08 03:16:08;;;;;;;8.43;3.93;;;-1.70;99.90;;;;;;5029800;28;20922;-68
2022/12/08 03:18:40;;;;;;;10.17;4.00;;;-1.70;99.90;;;;;;5029403;28;20444;-68
2022/12/08 03:21:06;;;;;;;1.10;0.50;;;-1.80;99.90;;;;;;5032659;28;20449;-68
2022/12/08 03:23:35;;;;;;;8.53;3.80;;;-1.80;99.90;;;;;;5030401;28;20446;-68
2022/12/08 03:26:09;;;;;;;5.10;2.57;;;-1.80;99.90;;;;;;5033034;28;20757;-68
2022/12/08 03:28:35;;;;;;;9.67;4.10;;;-1.80;99.90;;;;;;5032056;28;20484;-68
2022/12/08 03:31:06;;;;;;;12.80;4.00;;;-1.80;99.90;;;;;;5032500;28;20437;-69
2022/12/08 03:33:36;;;;;;;7.77;4.30;;;-1.80;99.90;;;;;;5030591;28;20436;-68
2022/12/08 03:36:04;;;;;;;1.00;0.40;;;-1.70;99.90;;;;;;5031589;28;20433;-68
2022/12/08 03:38:38;;;;;;;5.70;2.27;;;-1.70;99.90;;;;;;5021551;28;20444;-68
2022/12/08 03:41:19;;;;;;;14.13;4.13;;;-1.70;99.90;;;;;;5029435;28;20544;-68
2022/12/08 03:43:49;;;;;;;6.67;4.17;;;-1.70;99.90;;;;;;5030438;28;20547;-68
2022/12/08 03:46:16;;;;;;;9.20;4.93;;;-1.70;99.90;;;;;;5032031;28;20476;-68
2022/12/08 03:48:42;;;;;;;10.47;4.93;;;-1.80;99.90;;;;;;5031612;28;20469;-68
2022/12/08 03:51:08;;;;;;;8.40;4.07;;;-1.80;99.90;;;;;;5037466;28;20421;-68
2022/12/08 03:53:34;;;;;;;12.77;5.77;;;-1.80;99.90;;;;;;5027645;28;20921;-67
2022/12/08 03:55:59;;;;;;;8.27;3.70;;;-1.80;99.90;;;;;;5031419;28;20206;-68
2022/12/08 03:58:26;;;;;;;9.23;3.97;;;-1.80;99.90;;;;;;5028562;28;20642;-68
2022/12/08 04:00:51;;;;;;;7.40;4.23;;;-1.90;99.90;;;;;;5028291;28;20190;-68
2022/12/08 04:03:17;;;;;;;8.87;4.57;;;-1.90;99.90;;;;;;5031027;28;20461;-67
2022/12/08 04:05:42;;;;;;;9.30;4.70;;;-1.90;99.90;;;;;;5031354;28;20624;-68
2022/12/08 04:08:08;;;;;;;6.90;3.60;;;-1.90;99.90;;;;;;5029033;28;20222;-68
2022/12/08 04:10:33;;;;;;;8.13;4.57;;;-1.90;99.90;;;;;;5032355;28;20204;-68
2022/12/08 04:12:59;;;;;;;7.80;4.30;;;-1.90;99.90;;;;;;5029536;28;20182;-68
2022/12/08 04:15:24;;;;;;;9.00;4.50;;;-1.90;99.90;;;;;;5032079;28;20586;-68
2022/12/08 04:17:50;;;;;;;5.70;3.50;;;-2.00;99.90;;;;;;5029998;28;20186;-67
2022/12/08 04:20:16;;;;;;;1.20;0.60;;;-2.00;99.90;;;;;;5030476;28;20187;-68
2022/12/08 04:22:41;;;;;;;8.37;4.43;;;-1.90;99.90;;;;;;5031434;28;20190;-68
2022/12/08 04:25:07;;;;;;;9.37;4.37;;;-1.90;99.90;;;;;;5030798;28;20190;-68
2022/12/08 04:27:33;;;;;;;14.63;4.87;;;-2.00;99.90;;;;;;5028405;28;20246;-68
2022/12/08 04:29:58;;;;;;;7.80;4.10;;;-2.00;99.90;;;;;;5031645;28;20541;-68
2022/12/08 04:32:24;;;;;;;6.87;3.33;;;-2.00;99.90;;;;;;5029708;28;20197;-68
2022/12/08 04:34:49;;;;;;;9.33;3.73;;;-2.10;99.90;;;;;;5030280;28;20186;-68
2022/12/08 04:37:15;;;;;;;2.87;2.63;;;-2.10;99.90;;;;;;5030900;28;20197;-68
2022/12/08 04:39:40;;;;;;;11.80;4.70;;;-2.00;99.90;;;;;;5031059;28;20210;-68
2022/12/08 04:42:06;;;;;;;6.40;3.60;;;-2.00;99.90;;;;;;5030800;28;20654;-68
2022/12/08 04:44:32;;;;;;;1.00;0.40;;;-2.00;99.90;;;;;;5031738;28;20260;-68
2022/12/08 04:46:57;;;;;;;10.63;4.10;;;-2.10;99.90;;;;;;5032018;28;20202;-68
2022/12/08 04:49:23;;;;;;;13.83;5.20;;;-2.00;99.90;;;;;;5030714;28;20632;-68
2022/12/08 04:51:48;;;;;;;12.43;5.87;;;-2.00;99.90;;;;;;5031215;28;20217;-68
2022/12/08 04:54:14;;;;;;;5.87;3.50;;;-2.10;99.90;;;;;;5030931;28;20189;-68
2022/12/08 04:56:39;;;;;;;9.67;4.03;;;-2.20;99.90;;;;;;5031843;28;20205;-68
2022/12/08 04:59:05;;;;;;;9.37;5.23;;;-2.30;99.90;;;;;;5030355;28;20205;-68
2022/12/08 05:01:31;;;;;;;11.80;4.13;;;-2.40;99.90;;;;;;5028596;28;20248;-68
2022/12/08 05:03:56;;;;;;;9.00;4.03;;;-2.40;99.90;;;;;;5031261;28;20277;-68
2022/12/08 05:06:23;;;;;;;8.50;4.27;;;-2.40;99.90;;;;;;5031757;28;20187;-68
2022/12/08 05:08:48;;;;;;;10.53;4.93;;;-2.50;99.90;;;;;;5031618;28;20217;-68
2022/12/08 05:11:14;;;;;;;9.33;4.90;;;-2.40;99.90;;;;;;5031583;28;20419;-68
2022/12/08 05:13:40;;;;;;;11.63;5.60;;;-2.40;99.90;;;;;;5028849;28;20814;-68
2022/12/08 05:16:08;;;;;;;9.90;4.07;;;-2.40;99.90;;;;;;5030989;28;20304;-68
2022/12/08 05:18:34;;;;;;;12.40;4.60;;;-2.40;99.90;;;;;;5029581;28;20190;-68
2022/12/08 05:21:00;;;;;;;9.23;4.10;;;-2.40;99.90;;;;;;5029876;28;20468;-67
2022/12/08 05:23:26;;;;;;;8.73;4.17;;;-2.40;99.90;;;;;;5028701;28;20476;-68
2022/12/08 05:25:52;;;;;;;12.83;5.37;;;-2.40;99.90;;;;;;5029471;28;20507;-68
2022/12/08 05:28:18;;;;;;;9.60;4.53;;;-2.40;99.90;;;;;;5030075;28;20675;-68
2022/12/08 05:30:43;;;;;;;9.73;4.67;;;-2.50;99.90;;;;;;5028205;28;20182;-68
2022/12/08 05:33:09;;;;;;;13.70;5.27;;;-2.50;99.90;;;;;;5027784;28;20205;-68
2022/12/08 05:35:34;;;;;;;1.10;0.40;;;-2.50;99.90;;;;;;5026253;28;20210;-68
2022/12/08 05:38:00;;;;;;;5.10;3.17;;;-2.50;99.90;;;;;;5030619;28;20190;-68
2022/12/08 05:40:26;;;;;;;11.30;4.60;;;-2.60;99.90;;;;;;5029491;28;20191;-68
2022/12/08 05:42:52;;;;;;;1.50;0.70;;;-2.50;99.90;;;;;;5027275;28;20329;-68
2022/12/08 05:45:18;;;;;;;8.57;4.97;;;-2.60;99.90;;;;;;5029303;28;20520;-68
2022/12/08 05:47:44;;;;;;;5.90;3.77;;;-2.60;99.90;;;;;;5029539;28;20224;-67
2022/12/08 05:50:09;;;;;;;8.73;3.83;;;-2.70;99.90;;;;;;5027627;28;20186;-67
2022/12/08 05:52:35;;;;;;;12.00;5.40;;;-2.60;99.90;;;;;;5029593;28;20201;-67
2022/12/08 05:55:01;;;;;;;11.23;5.00;;;-2.60;99.90;;;;;;5028495;28;20193;-68
2022/12/08 05:57:27;;;;;;;2.90;0.73;;;-2.60;99.90;;;;;;5028237;28;20230;-68
2022/12/08 05:59:52;;;;;;;6.37;3.17;;;-2.60;99.90;;;;;;5027433;28;20567;-67
2022/12/08 06:02:18;;;;;;;13.57;6.00;;;-2.60;99.90;;;;;;5025424;28;20236;-68
2022/12/08 06:04:43;;;;;;;12.63;5.83;;;-2.70;99.90;;;;;;5029283;28;20240;-68
2022/12/08 06:07:09;;;;;;;13.93;5.87;;;-2.60;99.90;;;;;;5028876;28;20190;-68
2022/12/08 06:09:35;;;;;;;9.40;5.20;;;-2.70;99.90;;;;;;5030929;28;20573;-68
2022/12/08 06:12:01;;;;;;;10.80;4.47;;;-2.80;99.90;;;;;;5028601;28;20182;-68
2022/12/08 06:14:27;;;;;;;10.27;5.40;;;-2.90;99.90;;;;;;5025570;28;20711;-68
2022/12/08 06:16:52;;;;;;;12.37;5.50;;;-3.00;99.90;;;;;;5027983;28;20444;-68
2022/12/08 06:19:18;;;;;;;8.80;4.83;;;-3.00;99.90;;;;;;5028745;28;20233;-67
2022/12/08 06:21:43;;;;;;;1.20;0.80;;;-2.90;99.90;;;;;;5026305;28;20190;-68
2022/12/08 06:24:09;;;;;;;12.10;5.50;;;-3.00;99.90;;;;;;5030097;28;20198;-68
2022/12/08 06:26:35;;;;;;;11.63;4.53;;;-3.00;99.90;;;;;;5030602;28;20274;-68
2022/12/08 06:29:01;;;;;;;7.13;4.27;;;-3.10;99.90;;;;;;5031691;28;20210;-68
2022/12/08 06:31:27;;;;;;;10.47;4.73;;;-3.10;99.90;;;;;;5033252;28;20205;-68
2022/12/08 06:33:53;;;;;;;6.53;3.67;;;-3.00;99.90;;;;;;5034028;28;20484;-68
2022/12/08 06:36:22;;;;;;;1.00;0.50;;;-3.00;99.90;;;;;;5033506;28;20594;-68
2022/12/08 06:38:48;;;;;;;12.47;6.13;;;-3.00;99.90;;;;;;5032839;28;20883;-68
2022/12/08 06:41:14;;;;;;;2.13;0.67;;;-3.10;99.90;;;;;;5034016;28;20433;-68
2022/12/08 06:43:40;;;;;;;13.73;6.60;;;-3.00;99.90;;;;;;5032529;28;20530;-67
2022/12/08 06:46:09;;;;;;;13.07;6.10;;;-3.00;99.90;;;;;;5032533;28;21145;-67
2022/12/08 06:48:35;;;;;;;15.87;6.97;;;-3.10;99.90;;;;;;5032941;28;20464;-67
2022/12/08 06:51:17;;;;;;;15.20;6.63;;;-3.10;99.90;;;;;;5029354;28;20482;-67
2022/12/08 06:53:43;;;;;;;9.70;2.10;;;-3.10;99.90;;;;;;5026098;28;20190;-67
2022/12/08 06:56:09;;;;;;;12.90;7.33;;;-3.10;99.90;;;;;;5032193;28;21200;-67
2022/12/08 06:58:35;;;;;;;5.27;2.67;;;-3.10;99.90;;;;;;5031151;28;20448;-67
2022/12/08 07:01:10;;;;;;;23.20;9.17;;;-3.10;99.90;;;;;;5029085;28;20544;-67
2022/12/08 07:03:36;;;;;;;19.03;8.83;;;-3.00;99.90;;;;;;5028795;28;20793;-67
2022/12/08 07:06:02;;;;;;;15.03;7.97;;;-3.00;99.90;;;;;;5032468;28;20444;-67
2022/12/08 07:08:27;;;;;;;13.70;7.80;;;-3.00;99.90;;;;;;5031281;28;20468;-67
2022/12/08 07:10:53;;;;;;;15.50;6.73;;;-3.00;99.90;;;;;;5033577;28;20183;-67
2022/12/08 07:13:18;;;;;;;10.20;5.63;;;-3.00;99.90;;;;;;5033362;28;20575;-67
2022/12/08 07:15:44;;;;;;;12.93;6.37;;;-3.00;99.90;;;;;;5032969;28;20202;-67
2022/12/08 07:18:10;;;;;;;17.73;7.30;;;-3.20;99.90;;;;;;5033269;28;20194;-67
2022/12/08 07:20:35;;;;;;;23.50;8.33;;;-3.20;99.90;;;;;;5033335;28;20190;-67
2022/12/08 07:23:01;;;;;;;2.10;1.27;;;-3.20;99.90;;;;;;5028891;28;20186;-67
2022/12/08 07:25:26;;;;;;;12.73;5.90;;;-3.10;99.90;;;;;;5028441;28;20217;-67
2022/12/08 07:27:52;;;;;;;16.20;7.43;;;-3.10;99.90;;;;;;5031272;28;20651;-67
2022/12/08 07:30:18;;;;;;;10.03;6.03;;;-3.20;99.90;;;;;;5033230;28;20191;-67
2022/12/08 07:32:44;;;;;;;15.90;6.40;;;-3.10;99.90;;;;;;5032588;28;20183;-67
2022/12/08 07:35:10;;;;;;;15.60;7.20;;;-3.10;99.90;;;;;;5027764;28;20491;-67
2022/12/08 07:37:36;;;;;;;1.00;0.40;;;-3.10;99.90;;;;;;5031247;28;20449;-67
2022/12/08 07:40:04;;;;;;;17.57;8.10;;;-3.00;99.90;;;;;;5031486;28;20467;-67
2022/12/08 07:42:29;;;;;;;1.83;0.90;;;-2.90;99.90;;;;;;5011944;28;20449;-67
2022/12/08 07:44:55;;;;;;;11.70;6.37;;;-2.90;99.90;;;;;;5032471;28;20902;-67
2022/12/08 07:47:20;;;;;;;17.30;6.53;;;-2.90;99.90;;;;;;5032960;28;20244;-67
2022/12/08 07:49:46;;;;;;;13.83;6.10;;;-2.90;99.90;;;;;;5024367;28;20182;-67
2022/12/08 07:52:12;;;;;;;11.10;6.70;;;-2.80;99.90;;;;;;5029733;28;20214;-67
2022/12/08 07:54:37;;;;;;;11.53;5.70;;;-2.80;99.90;;;;;;5032026;28;20187;-67
2022/12/08 07:57:04;;;;;;;13.53;6.57;;;-2.80;99.90;;;;;;5032404;28;20637;-67
2022/12/08 07:59:31;;;;;;;12.80;6.60;;;-2.80;99.90;;;;;;5031183;28;20186;-67
2022/12/08 08:01:56;;;;;;;11.57;6.07;;;-2.80;99.90;;;;;;5030312;28;20914;-67
2022/12/08 08:04:22;;;;;;;13.40;6.23;;;-2.70;99.90;;;;;;5031559;28;20433;-67
2022/12/08 08:06:47;;;;;;;11.67;4.97;;;-2.60;99.90;;;;;;5031716;28;20249;-68
2022/12/08 08:09:13;;;;;;;12.07;4.87;;;-2.40;99.90;;;;;;5031440;28;20186;-67
2022/12/08 08:11:39;;;;;;;1.80;0.60;;;-2.30;99.90;;;;;;5028937;28;20585;-67
2022/12/08 08:14:04;;;;;;;13.60;3.93;;;-2.10;99.90;;;;;;5026991;28;20190;-67
2022/12/08 08:16:30;;;;;;;6.60;3.60;;;-2.00;99.90;;;;;;5026226;28;20187;-68
2022/12/08 08:18:55;;;;;;;8.93;4.20;;;-1.90;99.90;;;;;;5024862;28;20211;-68
2022/12/08 08:21:21;;;;;;;6.13;2.40;;;-1.80;99.90;;;;;;5026300;28;20183;-68
2022/12/08 08:23:47;;;;;;;11.10;4.10;;;-1.70;99.90;;;;;;5028705;28;20264;-67
2022/12/08 08:26:13;;;;;;;7.20;3.30;;;-1.60;99.90;;;;;;5028106;28;20186;-68
2022/12/08 08:28:39;;;;;;;13.10;4.80;;;-1.50;99.90;;;;;;5024857;28;20265;-68
2022/12/08 08:31:05;;;;;;;8.53;3.93;;;-1.40;99.90;;;;;;5032078;28;20497;-68
2022/12/08 08:33:31;;;;;;;1.10;0.47;;;-1.40;99.90;;;;;;5029192;28;20221;-67
2022/12/08 08:35:57;;;;;;;7.37;3.90;;;-1.30;99.90;;;;;;5030846;28;20816;-67
2022/12/08 08:38:23;;;;;;;9.53;4.57;;;-1.20;99.90;;;;;;5029961;28;20778;-67
2022/12/08 08:40:49;;;;;;;2.17;1.10;;;-1.10;99.90;;;;;;5029693;28;20185;-67
2022/12/08 08:43:29;;;;;;;9.10;3.90;;;-1.00;99.90;;;;;;5030411;28;20433;-68
2022/12/08 08:45:58;;;;;;;9.53;4.30;;;-0.90;99.90;;;;;;5032321;28;20496;-68
2022/12/08 08:48:26;;;;;;;6.80;3.20;;;-0.80;99.90;;;;;;5029986;28;20452;-68
2022/12/08 08:50:52;;;;;;;6.67;1.73;;;-0.70;99.90;;;;;;5030806;28;20524;-68
2022/12/08 08:53:17;;;;;;;6.63;3.53;;;-0.50;99.90;;;;;;5030960;28;20512;-68
2022/12/08 08:55:43;;;;;;;1.20;0.50;;;-0.40;99.90;;;;;;5026851;28;21001;-68
2022/12/08 08:58:09;;;;;;;5.93;2.23;;;-0.40;99.90;;;;;;5027336;28;20309;-68
2022/12/08 09:00:34;;;;;;;6.10;2.90;;;-0.40;99.90;;;;;;5023782;28;20194;-68
2022/12/08 09:03:00;;;;;;;8.10;3.20;;;-0.30;99.90;;;;;;5022608;28;20270;-67
2022/12/08 09:05:25;;;;;;;7.23;2.80;;;-0.30;99.90;;;;;;5027783;28;20182;-67
2022/12/08 09:07:51;;;;;;;4.93;2.93;;;-0.30;99.90;;;;;;5027698;28;20197;-67
2022/12/08 09:10:17;;;;;;;10.17;4.10;;;-0.20;99.90;;;;;;5029043;28;20194;-67
2022/12/08 09:12:42;;;;;;;5.60;2.60;;;-0.20;99.90;;;;;;5029030;28;20191;-67
2022/12/08 09:15:08;;;;;;;1.20;0.50;;;-0.20;99.90;;;;;;5029108;28;20233;-67
2022/12/08 09:17:34;;;;;;;1.00;0.50;;;-0.10;99.90;;;;;;5030115;28;20214;-67
2022/12/08 09:20:00;;;;;;;8.00;3.53;;;-0.10;99.90;;;;;;5023748;28;20185;-67
2022/12/08 09:22:25;;;;;;;5.73;2.83;;;0.00;99.90;;;;;;5028162;28;20179;-68
2022/12/08 09:24:51;;;;;;;5.50;3.23;;;0.00;99.90;;;;;;5029265;28;20421;-67
2022/12/08 09:27:17;;;;;;;5.97;3.17;;;0.10;99.90;;;;;;5029774;28;20706;-67
2022/12/08 09:29:42;;;;;;;5.10;3.27;;;0.10;99.90;;;;;;5027269;28;20221;-67
2022/12/08 09:32:09;;;;;;;8.97;3.60;;;0.10;99.90;;;;;;5028219;28;20191;-67
2022/12/08 09:34:35;;;;;;;11.77;4.50;;;0.20;99.90;;;;;;5028968;28;20185;-67
2022/12/08 09:37:00;;;;;;;2.53;0.93;;;0.30;99.90;;;;;;5029743;28;20425;-68
2022/12/08 09:39:26;;;;;;;11.93;4.00;;;0.40;99.90;;;;;;5025848;28;20252;-67
2022/12/08 09:42:03;;;;;;;12.80;4.60;;;0.50;99.90;;;;;;5026181;28;20186;-68
2022/12/08 09:44:46;;;;;;;9.27;4.63;;;0.70;99.90;;;;;;5027743;28;20182;-67
2022/12/08 09:47:21;;;;;;;9.57;3.43;;;0.90;99.90;;;;;;5024741;28;21141;-68
2022/12/08 09:50:10;;;;;;;14.30;3.23;;;0.90;99.90;;;;;;5026692;28;21035;-67
2022/12/08 09:53:03;;;;;;;5.93;2.97;;;0.80;99.90;;;;;;5008675;28;20444;-67
2022/12/08 09:55:54;;;;;;;6.10;2.73;;;0.90;99.90;;;;;;5030207;28;20417;-68
2022/12/08 09:59:00;;;;;;;10.03;4.33;;;1.00;99.90;;;;;;5028481;28;20973;-67
2022/12/08 10:01:28;;;;;;;8.23;3.43;;;1.00;99.90;;;;;;5025204;28;20465;-67
2022/12/08 10:03:54;;;;;;;9.37;4.00;;;1.10;99.90;;;;;;5027358;28;20433;-67
2022/12/08 10:06:32;;;;;;;5.73;3.30;;;1.20;99.90;;;;;;5028799;28;20413;-67
2022/12/08 10:09:32;;;;;;;5.07;3.03;;;1.30;99.90;;;;;;5028286;28;20512;-67
2022/12/08 10:12:20;;;;;;;6.00;2.73;;;1.60;99.90;;;;;;5027559;28;20432;-69
2022/12/08 10:15:11;;;;;;;7.97;2.60;;;1.60;99.90;;;;;;5021533;28;20421;-68
2022/12/08 10:17:43;;;;;;;3.70;2.40;;;1.70;99.90;;;;;;5024943;28;20482;-68
2022/12/08 10:20:16;;;;;;;9.23;3.40;;;1.80;99.90;;;;;;5027707;28;21117;-68
2022/12/08 10:22:45;;;;;;;4.30;2.90;;;1.90;99.90;;;;;;5025914;28;20441;-68
2022/12/08 10:25:18;;;;;;;6.30;3.07;;;2.00;99.90;;;;;;5024002;28;20916;-68
2022/12/08 10:27:46;;;;;;;4.50;2.17;;;2.10;99.90;;;;;;5028942;28;20500;-68
2022/12/08 10:30:14;;;;;;;9.83;3.17;;;2.10;99.90;;;;;;5028920;28;20515;-68
2022/12/08 10:32:44;;;;;;;7.23;3.20;;;2.10;99.90;;;;;;5026671;28;20767;-68
2022/12/08 10:35:12;;;;;;;5.43;2.63;;;2.20;99.90;;;;;;5026584;28;20459;-68
2022/12/08 10:37:38;;;;;;;9.97;2.80;;;2.30;99.90;;;;;;5021458;28;20469;-68
2022/12/08 10:40:16;;;;;;;7.47;2.77;;;2.40;99.90;;;;;;5024970;28;20871;-68
2022/12/08 10:42:47;;;;;;;4.67;2.30;;;2.60;99.90;;;;;;5024456;28;20540;-68
2022/12/08 10:45:29;;;;;;;7.67;2.17;;;2.70;99.90;;;;;;5023983;28;20555;-68
2022/12/08 10:48:02;;;;;;;5.50;2.73;;;2.50;99.90;;;;;;5027755;28;20526;-68
2022/12/08 10:50:43;;;;;;;5.20;2.33;;;2.70;99.90;;;;;;5026161;28;20468;-68
2022/12/08 10:53:13;;;;;;;3.93;2.30;;;2.70;99.90;;;;;;5025758;28;20470;-68
2022/12/08 10:55:45;;;;;;;6.73;2.87;;;2.80;99.90;;;;;;5028755;28;20437;-68
2022/12/08 10:58:29;;;;;;;5.13;2.90;;;2.90;99.90;;;;;;5025826;28;20848;-68
2022/12/08 11:00:58;;;;;;;5.23;2.37;;;3.00;99.90;;;;;;5025157;28;20479;-68
2022/12/08 11:03:31;;;;;;;6.30;2.53;;;3.10;99.90;;;;;;5021986;28;20443;-68
2022/12/08 11:06:08;;;;;;;7.00;2.43;;;3.00;99.90;;;;;;5028388;28;20421;-68
2022/12/08 11:08:53;;;;;;;4.73;2.90;;;3.10;99.90;;;;;;5027510;28;20425;-68
2022/12/08 11:11:20;;;;;;;6.70;3.87;;;3.20;99.90;;;;;;5026936;28;20432;-68
2022/12/08 11:13:49;;;;;;;4.50;2.73;;;3.20;99.90;;;;;;5024875;28;20941;-68
2022/12/08 11:16:16;;;;;;;5.37;2.87;;;3.30;99.90;;;;;;5026985;28;20482;-68
2022/12/08 11:18:46;;;;;;;5.57;2.90;;;3.40;99.90;;;;;;5014782;28;20551;-70
2022/12/08 11:21:15;;;;;;;2.90;2.10;;;3.40;99.90;;;;;;5030362;28;20514;-67
2022/12/08 11:23:44;;;;;;;6.63;2.20;;;3.30;99.90;;;;;;5029579;28;20441;-68
2022/12/08 11:26:17;;;;;;;4.90;2.20;;;3.30;99.90;;;;;;5029772;28;20913;-68
2022/12/08 11:28:43;;;;;;;7.50;3.30;;;3.30;99.90;;;;;;5026512;28;20480;-67
2022/12/08 11:31:36;;;;;;;6.77;2.77;;;3.50;99.90;;;;;;5031684;28;20831;-68
2022/12/08 11:34:02;;;;;;;5.73;2.70;;;3.30;99.90;;;;;;5023758;28;20313;-68
2022/12/08 11:36:31;;;;;;;4.23;2.20;;;3.40;99.90;;;;;;5030918;28;20425;-67
2022/12/08 11:39:01;;;;;;;6.90;2.90;;;3.50;99.90;;;;;;5030952;28;20461;-68
2022/12/08 11:41:35;;;;;;;6.27;3.13;;;3.50;99.90;;;;;;5028919;28;20520;-68
2022/12/08 11:44:05;;;;;;;5.53;3.13;;;3.60;99.90;;;;;;5030405;28;20441;-68
2022/12/08 11:46:47;;;;;;;6.67;3.17;;;3.50;99.90;;;;;;5026525;28;20941;-68
2022/12/08 11:49:13;;;;;;;7.50;2.90;;;3.50;99.90;;;;;;5029374;28;20444;-68
2022/12/08 11:52:20;;;;;;;6.07;2.73;;;3.40;99.90;;;;;;5030244;28;20890;-68
2022/12/08 11:54:51;;;;;;;8.30;3.67;;;3.60;99.90;;;;;;5028619;28;20436;-68
2022/12/08 11:57:21;;;;;;;4.53;2.73;;;3.60;99.90;;;;;;5024060;28;20445;-68
2022/12/08 11:59:50;;;;;;;5.90;2.40;;;3.60;99.90;;;;;;5030412;28;20953;-68
2022/12/08 12:02:33;;;;;;;5.20;2.00;;;3.60;99.90;;;;;;5027659;28;20463;-69
2022/12/08 12:05:04;;;;;;;5.47;2.40;;;3.60;99.90;;;;;;5027455;28;20433;-68
2022/12/08 12:07:42;;;;;;;5.60;2.83;;;3.60;99.90;;;;;;5024693;28;20452;-68
2022/12/08 12:10:34;;;;;;;5.83;2.07;;;3.60;99.90;;;;;;5029868;28;20567;-68
2022/12/08 12:13:16;;;;;;;4.13;2.03;;;3.50;99.90;;;;;;5021293;28;20991;-68
2022/12/08 12:16:13;;;;;;;5.13;2.43;;;3.50;99.90;;;;;;5021952;28;20445;-68
2022/12/08 12:18:45;;;;;;;4.57;2.13;;;3.40;99.90;;;;;;5020999;28;20464;-68
2022/12/08 12:21:18;;;;;;;3.10;1.87;;;3.20;99.90;;;;;;5027590;28;20463;-68
2022/12/08 12:23:58;;;;;;;5.30;2.47;;;3.10;99.90;;;;;;5028685;28;20440;-69
2022/12/08 12:26:35;;;;;;;6.23;2.57;;;3.10;99.90;;;;;;5026554;28;20440;-68
2022/12/08 12:29:15;;;;;;;4.37;2.10;;;3.10;99.90;;;;;;5023258;28;20544;-68
2022/12/08 12:31:46;;;;;;;3.87;1.90;;;3.20;99.90;;;;;;5026923;28;20502;-69
2022/12/08 12:34:20;;;;;;;4.80;2.10;;;3.20;99.90;;;;;;5028419;28;20441;-69
2022/12/08 12:36:56;;;;;;;5.73;2.67;;;3.20;99.90;;;;;;5027745;28;20440;-69
2022/12/08 12:39:26;;;;;;;3.70;2.03;;;3.10;99.90;;;;;;5028316;28;20480;-69
2022/12/08 12:42:00;;;;;;;2.60;1.50;;;2.90;99.90;;;;;;5026970;28;20432;-69
2022/12/08 12:44:44;;;;;;;3.43;2.17;;;2.80;99.90;;;;;;5030502;28;20484;-69
2022/12/08 12:47:13;;;;;;;6.53;2.67;;;2.60;99.90;;;;;;5027197;28;20441;-69
2022/12/08 12:49:39;;;;;;;4.37;2.00;;;2.50;99.90;;;;;;5025331;28;20444;-69
2022/12/08 12:52:22;;;;;;;3.00;2.00;;;2.50;99.90;;;;;;5028766;28;20425;-69
2022/12/08 12:54:50;;;;;;;3.30;1.87;;;2.50;99.90;;;;;;5024387;28;20190;-69
2022/12/08 12:57:19;;;;;;;3.80;1.97;;;2.60;99.90;;;;;;5028111;28;20543;-69
2022/12/08 12:59:46;;;;;;;7.10;2.43;;;2.70;99.90;;;;;;5027334;28;20448;-70
2022/12/08 13:02:37;;;;;;;3.00;1.73;;;2.60;99.90;;;;;;5033116;28;20511;-69
2022/12/08 13:05:08;;;;;;;4.80;2.03;;;2.70;99.90;;;;;;5024365;28;20452;-70